sensor_id;sensor_type;location;lat;lon;timestamp;pressure;altitude;pressure_sealevel;temperature;humidity
22333;BME280;11334;36.986;-121.936;2023-02-13T00:01:46;100928.22;;;15.56;80.92
22333;BME280;11334;36.986;-121.936;2023-02-13T00:04:12;100922.63;;;15.51;80.91
22333;BME280;11334;36.986;-121.936;2023-02-13T00:06:38;100919.31;;;15.49;81.02
22333;BME280;11334;36.986;-121.936;2023-02-13T00:09:05;100928.31;;;15.48;81.25
22333;BME280;11334;36.986;-121.936;2023-02-13T00:11:36;100929.53;;;15.46;81.52
22333;BME280;11334;36.986;-121.936;2023-02-13T00:14:02;100918.84;;;15.46;81.33
22333;BME280;11334;36.986;-121.936;2023-02-13T00:16:28;100909.72;;;15.41;80.79
22333;BME280;11334;36.986;-121.936;2023-02-13T00:18:55;100926.69;;;15.48;80.96
22333;BME280;11334;36.986;-121.936;2023-02-13T00:21:22;100932.03;;;15.48;80.96
22333;BME280;11334;36.986;-121.936;2023-02-13T00:23:48;100922.53;;;15.45;80.91
22333;BME280;11334;36.986;-121.936;2023-02-13T00:26:15;100923.91;;;15.41;81.18
22333;BME280;11334;36.986;-121.936;2023-02-13T00:28:42;100920.84;;;15.44;81.45
22333;BME280;11334;36.986;-121.936;2023-02-13T00:31:11;100912.13;;;15.36;81.46
22333;BME280;11334;36.986;-121.936;2023-02-13T00:33:38;100916.72;;;15.42;81.28
22333;BME280;11334;36.986;-121.936;2023-02-13T00:36:22;100915.31;;;15.31;81.17
22333;BME280;11334;36.986;-121.936;2023-02-13T00:38:49;100911.47;;;15.34;81.46
22333;BME280;11334;36.986;-121.936;2023-02-13T00:41:15;100918.38;;;15.43;81.33
22333;BME280;11334;36.986;-121.936;2023-02-13T00:43:43;100923.00;;;15.63;81.23
22333;BME280;11334;36.986;-121.936;2023-02-13T00:46:09;100911.50;;;15.77;80.49
22333;BME280;11334;36.986;-121.936;2023-02-13T00:48:36;100910.56;;;15.84;79.30
22333;BME280;11334;36.986;-121.936;2023-02-13T00:51:04;100914.50;;;15.88;79.15
22333;BME280;11334;36.986;-121.936;2023-02-13T00:53:30;100913.03;;;15.85;78.70
22333;BME280;11334;36.986;-121.936;2023-02-13T00:55:57;100915.69;;;15.85;79.27
22333;BME280;11334;36.986;-121.936;2023-02-13T00:58:23;100922.50;;;15.88;79.20
22333;BME280;11334;36.986;-121.936;2023-02-13T01:00:51;100916.53;;;15.86;79.23
22333;BME280;11334;36.986;-121.936;2023-02-13T01:03:18;100916.72;;;15.84;79.61
22333;BME280;11334;36.986;-121.936;2023-02-13T01:05:45;100903.28;;;15.78;79.68
22333;BME280;11334;36.986;-121.936;2023-02-13T01:08:12;100885.69;;;15.69;79.94
22333;BME280;11334;36.986;-121.936;2023-02-13T01:10:40;100909.16;;;15.74;79.97
22333;BME280;11334;36.986;-121.936;2023-02-13T01:13:06;100904.19;;;15.71;79.43
22333;BME280;11334;36.986;-121.936;2023-02-13T01:15:33;100908.06;;;15.68;79.79
22333;BME280;11334;36.986;-121.936;2023-02-13T01:18:00;100914.59;;;15.66;79.93
22333;BME280;11334;36.986;-121.936;2023-02-13T01:20:28;100913.34;;;15.62;79.75
22333;BME280;11334;36.986;-121.936;2023-02-13T01:22:55;100890.22;;;15.54;79.89
22333;BME280;11334;36.986;-121.936;2023-02-13T01:25:22;100904.84;;;15.58;80.54
22333;BME280;11334;36.986;-121.936;2023-02-13T01:27:48;100904.56;;;15.53;80.88
22333;BME280;11334;36.986;-121.936;2023-02-13T01:30:16;100899.22;;;15.39;80.85
22333;BME280;11334;36.986;-121.936;2023-02-13T01:32:44;100910.75;;;15.40;81.03
22333;BME280;11334;36.986;-121.936;2023-02-13T01:35:11;100904.28;;;15.34;81.75
22333;BME280;11334;36.986;-121.936;2023-02-13T01:37:38;100912.22;;;15.28;82.03
22333;BME280;11334;36.986;-121.936;2023-02-13T01:40:06;100911.72;;;15.24;82.81
22333;BME280;11334;36.986;-121.936;2023-02-13T01:42:34;100910.16;;;15.16;82.85
22333;BME280;11334;36.986;-121.936;2023-02-13T01:45:17;100913.56;;;15.10;83.28
22333;BME280;11334;36.986;-121.936;2023-02-13T01:47:47;100899.97;;;14.97;83.71
22333;BME280;11334;36.986;-121.936;2023-02-13T01:52:59;100924.88;;;14.89;84.21
22333;BME280;11334;36.986;-121.936;2023-02-13T01:55:28;100923.09;;;14.82;84.74
22333;BME280;11334;36.986;-121.936;2023-02-13T01:58:01;100916.47;;;14.78;84.82
22333;BME280;11334;36.986;-121.936;2023-02-13T02:00:30;100931.53;;;14.71;85.23
22333;BME280;11334;36.986;-121.936;2023-02-13T02:03:03;100930.22;;;14.67;85.34
22333;BME280;11334;36.986;-121.936;2023-02-13T02:05:31;100937.88;;;14.70;85.68
22333;BME280;11334;36.986;-121.936;2023-02-13T02:08:01;100941.44;;;14.63;85.83
22333;BME280;11334;36.986;-121.936;2023-02-13T02:10:30;100938.13;;;14.61;85.43
22333;BME280;11334;36.986;-121.936;2023-02-13T02:13:18;100944.81;;;14.57;85.14
22333;BME280;11334;36.986;-121.936;2023-02-13T02:15:45;100942.91;;;14.43;85.50
22333;BME280;11334;36.986;-121.936;2023-02-13T02:18:17;100961.38;;;14.45;85.54
22333;BME280;11334;36.986;-121.936;2023-02-13T02:32:54;100970.03;;;14.17;84.03
22333;BME280;11334;36.986;-121.936;2023-02-13T02:35:28;100963.91;;;14.08;84.08
22333;BME280;11334;36.986;-121.936;2023-02-13T02:38:11;100966.44;;;14.02;84.11
22333;BME280;11334;36.986;-121.936;2023-02-13T02:46:25;100989.94;;;13.90;83.95
22333;BME280;11334;36.986;-121.936;2023-02-13T02:49:06;100976.19;;;13.71;83.48
22333;BME280;11334;36.986;-121.936;2023-02-13T02:52:18;100988.66;;;13.79;83.74
22333;BME280;11334;36.986;-121.936;2023-02-13T02:54:54;100990.31;;;13.80;83.37
22333;BME280;11334;36.986;-121.936;2023-02-13T02:57:43;100980.50;;;13.72;83.43
22333;BME280;11334;36.986;-121.936;2023-02-13T03:00:31;100980.34;;;13.66;83.40
22333;BME280;11334;36.986;-121.936;2023-02-13T03:03:21;100991.03;;;13.58;83.47
22333;BME280;11334;36.986;-121.936;2023-02-13T03:06:20;100989.53;;;13.56;83.83
22333;BME280;11334;36.986;-121.936;2023-02-13T03:08:57;100990.53;;;13.55;83.28
22333;BME280;11334;36.986;-121.936;2023-02-13T03:11:51;100994.41;;;13.44;83.78
22333;BME280;11334;36.986;-121.936;2023-02-13T03:14:37;100993.22;;;13.31;83.86
22333;BME280;11334;36.986;-121.936;2023-02-13T03:17:05;100986.75;;;13.26;84.11
22333;BME280;11334;36.986;-121.936;2023-02-13T03:23:16;100995.56;;;13.18;84.63
22333;BME280;11334;36.986;-121.936;2023-02-13T03:26:13;100991.91;;;13.11;84.73
22333;BME280;11334;36.986;-121.936;2023-02-13T03:29:19;100994.75;;;13.10;84.97
22333;BME280;11334;36.986;-121.936;2023-02-13T03:34:41;100977.94;;;13.01;84.32
22333;BME280;11334;36.986;-121.936;2023-02-13T03:37:35;100973.63;;;12.85;84.67
22333;BME280;11334;36.986;-121.936;2023-02-13T03:43:26;100984.44;;;12.83;84.59
22333;BME280;11334;36.986;-121.936;2023-02-13T03:45:55;100982.09;;;12.80;84.61
22333;BME280;11334;36.986;-121.936;2023-02-13T03:48:29;100979.09;;;12.75;84.63
22333;BME280;11334;36.986;-121.936;2023-02-13T03:51:46;100982.59;;;12.76;84.99
22333;BME280;11334;36.986;-121.936;2023-02-13T03:54:41;100980.88;;;12.75;87.01
22333;BME280;11334;36.986;-121.936;2023-02-13T03:57:30;100981.22;;;12.64;87.41
22333;BME280;11334;36.986;-121.936;2023-02-13T04:00:18;100968.59;;;12.50;86.98
22333;BME280;11334;36.986;-121.936;2023-02-13T04:03:47;100970.22;;;12.43;87.89
22333;BME280;11334;36.986;-121.936;2023-02-13T04:05:49;100965.41;;;12.47;87.36
22333;BME280;11334;36.986;-121.936;2023-02-13T04:08:17;100969.56;;;12.49;86.74
22333;BME280;11334;36.986;-121.936;2023-02-13T04:10:58;100951.28;;;12.38;85.99
22333;BME280;11334;36.986;-121.936;2023-02-13T04:13:32;100977.03;;;12.46;85.69
22333;BME280;11334;36.986;-121.936;2023-02-13T04:16:12;100973.56;;;12.45;86.29
22333;BME280;11334;36.986;-121.936;2023-02-13T04:18:41;100969.22;;;12.44;85.91
22333;BME280;11334;36.986;-121.936;2023-02-13T04:21:08;100974.19;;;12.39;86.22
22333;BME280;11334;36.986;-121.936;2023-02-13T04:23:35;100968.50;;;12.27;86.53
22333;BME280;11334;36.986;-121.936;2023-02-13T04:26:04;100943.72;;;12.10;86.88
22333;BME280;11334;36.986;-121.936;2023-02-13T04:28:31;100959.97;;;12.07;87.76
22333;BME280;11334;36.986;-121.936;2023-02-13T04:30:57;100962.13;;;12.04;88.13
22333;BME280;11334;36.986;-121.936;2023-02-13T04:33:24;100950.50;;;12.05;87.85
22333;BME280;11334;36.986;-121.936;2023-02-13T04:35:50;100953.53;;;12.10;87.56
22333;BME280;11334;36.986;-121.936;2023-02-13T04:38:16;100964.00;;;12.11;87.50
22333;BME280;11334;36.986;-121.936;2023-02-13T04:40:42;100964.47;;;12.07;87.40
22333;BME280;11334;36.986;-121.936;2023-02-13T04:43:09;100953.16;;;12.05;87.84
22333;BME280;11334;36.986;-121.936;2023-02-13T04:45:35;100959.31;;;12.05;87.88
22333;BME280;11334;36.986;-121.936;2023-02-13T04:48:01;100965.63;;;12.04;87.75
22333;BME280;11334;36.986;-121.936;2023-02-13T04:50:27;100955.78;;;11.89;87.88
22333;BME280;11334;36.986;-121.936;2023-02-13T04:52:55;100956.94;;;11.87;88.17
22333;BME280;11334;36.986;-121.936;2023-02-13T04:55:26;100953.59;;;11.85;87.96
22333;BME280;11334;36.986;-121.936;2023-02-13T04:57:54;100953.38;;;11.78;87.94
22333;BME280;11334;36.986;-121.936;2023-02-13T05:00:22;100949.91;;;11.78;87.41
22333;BME280;11334;36.986;-121.936;2023-02-13T05:02:49;100947.22;;;11.70;87.50
22333;BME280;11334;36.986;-121.936;2023-02-13T05:05:15;100916.41;;;11.44;87.26
22333;BME280;11334;36.986;-121.936;2023-02-13T05:07:45;100944.97;;;11.50;87.95
22333;BME280;11334;36.986;-121.936;2023-02-13T05:10:12;100948.13;;;11.53;87.69
22333;BME280;11334;36.986;-121.936;2023-02-13T05:12:38;100947.81;;;11.56;87.06
22333;BME280;11334;36.986;-121.936;2023-02-13T05:15:05;100947.69;;;11.40;86.99
22333;BME280;11334;36.986;-121.936;2023-02-13T05:17:31;100951.88;;;11.43;87.40
22333;BME280;11334;36.986;-121.936;2023-02-13T05:19:58;100946.44;;;11.44;86.83
22333;BME280;11334;36.986;-121.936;2023-02-13T05:22:24;100950.75;;;11.45;85.58
22333;BME280;11334;36.986;-121.936;2023-02-13T05:25:09;100947.28;;;11.28;85.82
22333;BME280;11334;36.986;-121.936;2023-02-13T05:27:35;100939.78;;;11.23;87.00
22333;BME280;11334;36.986;-121.936;2023-02-13T05:30:01;100931.50;;;11.26;86.48
22333;BME280;11334;36.986;-121.936;2023-02-13T05:32:27;100941.94;;;11.20;86.74
22333;BME280;11334;36.986;-121.936;2023-02-13T05:34:53;100936.59;;;11.12;86.68
22333;BME280;11334;36.986;-121.936;2023-02-13T05:37:20;100940.47;;;11.00;86.92
22333;BME280;11334;36.986;-121.936;2023-02-13T05:39:46;100948.78;;;11.05;86.70
22333;BME280;11334;36.986;-121.936;2023-02-13T05:42:12;100948.47;;;11.08;86.04
22333;BME280;11334;36.986;-121.936;2023-02-13T05:44:38;100940.66;;;11.06;86.17
22333;BME280;11334;36.986;-121.936;2023-02-13T05:47:04;100940.47;;;11.00;86.09
22333;BME280;11334;36.986;-121.936;2023-02-13T05:49:31;100939.94;;;10.97;85.53
22333;BME280;11334;36.986;-121.936;2023-02-13T05:51:57;100936.25;;;10.90;85.71
22333;BME280;11334;36.986;-121.936;2023-02-13T05:54:23;100935.56;;;10.88;86.16
22333;BME280;11334;36.986;-121.936;2023-02-13T05:56:49;100922.31;;;10.88;85.31
22333;BME280;11334;36.986;-121.936;2023-02-13T05:59:16;100923.59;;;10.84;85.62
22333;BME280;11334;36.986;-121.936;2023-02-13T06:01:42;100920.56;;;10.79;85.59
22333;BME280;11334;36.986;-121.936;2023-02-13T06:04:08;100925.19;;;10.77;85.59
22333;BME280;11334;36.986;-121.936;2023-02-13T06:06:34;100921.72;;;10.76;85.69
22333;BME280;11334;36.986;-121.936;2023-02-13T06:09:01;100923.16;;;10.71;85.23
22333;BME280;11334;36.986;-121.936;2023-02-13T06:11:27;100915.84;;;10.65;85.80
22333;BME280;11334;36.986;-121.936;2023-02-13T06:13:53;100916.13;;;10.62;85.64
22333;BME280;11334;36.986;-121.936;2023-02-13T06:16:19;100911.97;;;10.60;85.36
22333;BME280;11334;36.986;-121.936;2023-02-13T06:18:47;100900.34;;;10.53;85.94
22333;BME280;11334;36.986;-121.936;2023-02-13T06:21:13;100893.75;;;10.40;86.21
22333;BME280;11334;36.986;-121.936;2023-02-13T06:23:40;100889.50;;;10.29;87.62
22333;BME280;11334;36.986;-121.936;2023-02-13T06:26:07;100901.16;;;10.36;86.95
22333;BME280;11334;36.986;-121.936;2023-02-13T06:28:34;100890.41;;;10.38;87.30
22333;BME280;11334;36.986;-121.936;2023-02-13T06:31:00;100896.00;;;10.35;87.07
22333;BME280;11334;36.986;-121.936;2023-02-13T06:33:26;100885.66;;;10.41;86.15
22333;BME280;11334;36.986;-121.936;2023-02-13T06:35:53;100886.50;;;10.24;86.37
22333;BME280;11334;36.986;-121.936;2023-02-13T06:38:19;100882.69;;;10.27;86.66
22333;BME280;11334;36.986;-121.936;2023-02-13T06:40:46;100878.47;;;10.34;86.92
22333;BME280;11334;36.986;-121.936;2023-02-13T06:43:13;100884.06;;;10.31;86.64
22333;BME280;11334;36.986;-121.936;2023-02-13T06:45:40;100877.94;;;10.30;86.15
22333;BME280;11334;36.986;-121.936;2023-02-13T06:48:07;100874.91;;;10.25;85.87
22333;BME280;11334;36.986;-121.936;2023-02-13T06:50:33;100855.22;;;10.10;85.94
22333;BME280;11334;36.986;-121.936;2023-02-13T06:53:00;100881.44;;;10.13;86.38
22333;BME280;11334;36.986;-121.936;2023-02-13T06:55:27;100879.59;;;10.14;86.72
22333;BME280;11334;36.986;-121.936;2023-02-13T06:57:53;100882.25;;;10.14;87.05
22333;BME280;11334;36.986;-121.936;2023-02-13T07:00:20;100878.47;;;10.16;86.83
22333;BME280;11334;36.986;-121.936;2023-02-13T07:02:46;100878.22;;;10.10;85.40
22333;BME280;11334;36.986;-121.936;2023-02-13T07:05:13;100868.41;;;10.03;85.74
22333;BME280;11334;36.986;-121.936;2023-02-13T07:07:40;100858.34;;;9.89;86.05
22333;BME280;11334;36.986;-121.936;2023-02-13T07:10:09;100871.22;;;10.01;86.54
22333;BME280;11334;36.986;-121.936;2023-02-13T07:12:37;100880.41;;;9.97;86.54
22333;BME280;11334;36.986;-121.936;2023-02-13T07:15:04;100876.56;;;9.92;87.15
22333;BME280;11334;36.986;-121.936;2023-02-13T07:17:30;100869.34;;;9.84;87.04
22333;BME280;11334;36.986;-121.936;2023-02-13T07:19:57;100871.78;;;9.95;86.89
22333;BME280;11334;36.986;-121.936;2023-02-13T07:22:23;100873.31;;;9.98;86.37
22333;BME280;11334;36.986;-121.936;2023-02-13T07:24:49;100874.31;;;9.87;85.75
22333;BME280;11334;36.986;-121.936;2023-02-13T07:27:15;100863.66;;;9.79;86.03
22333;BME280;11334;36.986;-121.936;2023-02-13T07:29:42;100868.88;;;9.72;87.27
22333;BME280;11334;36.986;-121.936;2023-02-13T07:32:08;100872.47;;;9.71;87.28
22333;BME280;11334;36.986;-121.936;2023-02-13T07:34:34;100876.56;;;9.65;87.77
22333;BME280;11334;36.986;-121.936;2023-02-13T07:37:01;100867.47;;;9.68;87.56
22333;BME280;11334;36.986;-121.936;2023-02-13T07:39:27;100832.84;;;9.44;87.24
22333;BME280;11334;36.986;-121.936;2023-02-13T07:41:54;100857.91;;;9.67;87.05
22333;BME280;11334;36.986;-121.936;2023-02-13T07:44:20;100864.88;;;9.58;86.61
22333;BME280;11334;36.986;-121.936;2023-02-13T07:46:46;100868.66;;;9.56;87.26
22333;BME280;11334;36.986;-121.936;2023-02-13T07:49:12;100860.91;;;9.54;88.18
22333;BME280;11334;36.986;-121.936;2023-02-13T07:51:39;100866.41;;;9.61;87.70
22333;BME280;11334;36.986;-121.936;2023-02-13T07:54:05;100860.06;;;9.54;87.38
22333;BME280;11334;36.986;-121.936;2023-02-13T07:56:31;100865.34;;;9.54;87.72
22333;BME280;11334;36.986;-121.936;2023-02-13T07:58:57;100863.25;;;9.57;87.66
22333;BME280;11334;36.986;-121.936;2023-02-13T08:01:24;100856.72;;;9.52;87.66
22333;BME280;11334;36.986;-121.936;2023-02-13T08:03:50;100849.50;;;9.54;87.36
22333;BME280;11334;36.986;-121.936;2023-02-13T08:06:17;100844.06;;;9.46;87.53
22333;BME280;11334;36.986;-121.936;2023-02-13T08:08:44;100851.75;;;9.49;87.17
22333;BME280;11334;36.986;-121.936;2023-02-13T08:11:24;100850.97;;;9.39;87.72
22333;BME280;11334;36.986;-121.936;2023-02-13T08:14:11;100840.00;;;9.34;86.95
22333;BME280;11334;36.986;-121.936;2023-02-13T08:16:37;100841.50;;;9.37;87.36
22333;BME280;11334;36.986;-121.936;2023-02-13T08:19:03;100833.03;;;9.33;86.93
22333;BME280;11334;36.986;-121.936;2023-02-13T08:21:30;100840.44;;;9.30;86.77
22333;BME280;11334;36.986;-121.936;2023-02-13T08:23:57;100844.50;;;9.24;87.00
22333;BME280;11334;36.986;-121.936;2023-02-13T08:26:23;100841.25;;;9.30;86.98
22333;BME280;11334;36.986;-121.936;2023-02-13T08:28:50;100833.91;;;9.24;86.72
22333;BME280;11334;36.986;-121.936;2023-02-13T08:31:16;100845.75;;;9.20;87.78
22333;BME280;11334;36.986;-121.936;2023-02-13T08:33:42;100847.28;;;9.23;88.01
22333;BME280;11334;36.986;-121.936;2023-02-13T08:36:08;100853.53;;;9.22;87.67
22333;BME280;11334;36.986;-121.936;2023-02-13T08:38:35;100843.00;;;9.13;87.39
22333;BME280;11334;36.986;-121.936;2023-02-13T08:41:01;100865.00;;;9.04;88.41
22333;BME280;11334;36.986;-121.936;2023-02-13T08:43:27;100829.84;;;8.94;87.94
22333;BME280;11334;36.986;-121.936;2023-02-13T08:45:57;100832.50;;;8.94;88.30
22333;BME280;11334;36.986;-121.936;2023-02-13T08:48:25;100844.03;;;9.02;87.67
22333;BME280;11334;36.986;-121.936;2023-02-13T08:50:51;100854.13;;;9.07;87.43
22333;BME280;11334;36.986;-121.936;2023-02-13T08:53:17;100858.19;;;9.01;87.76
22333;BME280;11334;36.986;-121.936;2023-02-13T08:55:54;100854.22;;;8.88;88.06
22333;BME280;11334;36.986;-121.936;2023-02-13T08:58:21;100844.66;;;8.78;89.24
22333;BME280;11334;36.986;-121.936;2023-02-13T09:00:47;100836.69;;;8.87;88.92
22333;BME280;11334;36.986;-121.936;2023-02-13T09:03:14;100841.72;;;8.81;89.22
22333;BME280;11334;36.986;-121.936;2023-02-13T09:05:40;100840.75;;;8.82;89.31
22333;BME280;11334;36.986;-121.936;2023-02-13T09:08:06;100826.59;;;8.73;89.27
22333;BME280;11334;36.986;-121.936;2023-02-13T09:10:36;100833.13;;;8.69;89.35
22333;BME280;11334;36.986;-121.936;2023-02-13T09:13:04;100828.25;;;8.74;89.86
22333;BME280;11334;36.986;-121.936;2023-02-13T09:15:31;100821.81;;;8.86;89.08
22333;BME280;11334;36.986;-121.936;2023-02-13T09:17:57;100837.81;;;8.84;89.02
22333;BME280;11334;36.986;-121.936;2023-02-13T09:20:24;100822.97;;;8.74;88.60
22333;BME280;11334;36.986;-121.936;2023-02-13T09:22:50;100821.44;;;8.72;88.83
22333;BME280;11334;36.986;-121.936;2023-02-13T09:25:17;100817.41;;;8.77;88.04
22333;BME280;11334;36.986;-121.936;2023-02-13T09:27:44;100830.22;;;8.72;87.78
22333;BME280;11334;36.986;-121.936;2023-02-13T09:30:11;100829.22;;;8.73;87.78
22333;BME280;11334;36.986;-121.936;2023-02-13T09:32:43;100832.56;;;8.75;87.72
22333;BME280;11334;36.986;-121.936;2023-02-13T09:35:09;100832.41;;;8.77;87.90
22333;BME280;11334;36.986;-121.936;2023-02-13T09:37:35;100825.91;;;8.71;87.79
22333;BME280;11334;36.986;-121.936;2023-02-13T09:40:02;100823.16;;;8.63;88.12
22333;BME280;11334;36.986;-121.936;2023-02-13T09:42:32;100816.88;;;8.64;87.89
22333;BME280;11334;36.986;-121.936;2023-02-13T09:45:04;100818.28;;;8.59;87.43
22333;BME280;11334;36.986;-121.936;2023-02-13T09:50:11;100810.53;;;8.48;87.69
22333;BME280;11334;36.986;-121.936;2023-02-13T09:52:43;100823.75;;;8.48;88.04
22333;BME280;11334;36.986;-121.936;2023-02-13T09:55:44;100824.84;;;8.46;88.17
22333;BME280;11334;36.986;-121.936;2023-02-13T09:58:40;100823.63;;;8.40;88.54
22333;BME280;11334;36.986;-121.936;2023-02-13T10:01:31;100822.75;;;8.40;88.71
22333;BME280;11334;36.986;-121.936;2023-02-13T10:07:09;100820.00;;;8.41;90.10
22333;BME280;11334;36.986;-121.936;2023-02-13T10:15:20;100833.19;;;8.51;91.25
22333;BME280;11334;36.986;-121.936;2023-02-13T10:18:20;100834.44;;;8.47;92.12
22333;BME280;11334;36.986;-121.936;2023-02-13T10:20:53;100828.59;;;8.52;93.29
22333;BME280;11334;36.986;-121.936;2023-02-13T10:25:58;100841.63;;;8.63;93.87
22333;BME280;11334;36.986;-121.936;2023-02-13T10:31:05;100833.41;;;8.76;94.46
22333;BME280;11334;36.986;-121.936;2023-02-13T10:33:41;100846.72;;;8.83;94.85
22333;BME280;11334;36.986;-121.936;2023-02-13T10:39:01;100846.88;;;8.82;95.65
22333;BME280;11334;36.986;-121.936;2023-02-13T10:41:39;100844.47;;;8.88;96.90
22333;BME280;11334;36.986;-121.936;2023-02-13T10:52:43;100820.69;;;8.98;98.99
22333;BME280;11334;36.986;-121.936;2023-02-13T10:58:07;100813.25;;;9.11;99.44
22333;BME280;11334;36.986;-121.936;2023-02-13T11:03:18;100812.78;;;9.24;100.00
22333;BME280;11334;36.986;-121.936;2023-02-13T11:05:47;100801.72;;;9.29;100.00
22333;BME280;11334;36.986;-121.936;2023-02-13T11:08:21;100781.50;;;9.20;100.00
22333;BME280;11334;36.986;-121.936;2023-02-13T11:10:49;100814.50;;;9.33;100.00
22333;BME280;11334;36.986;-121.936;2023-02-13T11:13:23;100809.78;;;9.37;100.00
22333;BME280;11334;36.986;-121.936;2023-02-13T11:16:08;100808.75;;;9.47;100.00
22333;BME280;11334;36.986;-121.936;2023-02-13T11:18:42;100807.63;;;9.67;100.00
22333;BME280;11334;36.986;-121.936;2023-02-13T11:21:22;100799.06;;;9.55;100.00
22333;BME280;11334;36.986;-121.936;2023-02-13T11:23:59;100802.66;;;9.64;100.00
22333;BME280;11334;36.986;-121.936;2023-02-13T11:26:32;100803.78;;;9.61;100.00
22333;BME280;11334;36.986;-121.936;2023-02-13T11:29:04;100786.31;;;9.68;100.00
22333;BME280;11334;36.986;-121.936;2023-02-13T11:31:37;100784.91;;;9.74;100.00
22333;BME280;11334;36.986;-121.936;2023-02-13T11:34:26;100780.44;;;9.74;100.00
22333;BME280;11334;36.986;-121.936;2023-02-13T11:37:08;100787.25;;;9.77;100.00
22333;BME280;11334;36.986;-121.936;2023-02-13T11:39:40;100794.88;;;9.79;100.00
22333;BME280;11334;36.986;-121.936;2023-02-13T11:45:01;100788.97;;;9.85;100.00
22333;BME280;11334;36.986;-121.936;2023-02-13T11:47:37;100792.88;;;9.91;100.00
22333;BME280;11334;36.986;-121.936;2023-02-13T11:50:28;100794.00;;;9.88;100.00
22333;BME280;11334;36.986;-121.936;2023-02-13T11:53:05;100787.78;;;9.97;100.00
22333;BME280;11334;36.986;-121.936;2023-02-13T11:55:37;100791.63;;;10.03;100.00
22333;BME280;11334;36.986;-121.936;2023-02-13T12:00:40;100796.50;;;10.07;100.00
22333;BME280;11334;36.986;-121.936;2023-02-13T12:03:26;100791.88;;;10.09;100.00
22333;BME280;11334;36.986;-121.936;2023-02-13T12:06:14;100806.31;;;10.14;100.00
22333;BME280;11334;36.986;-121.936;2023-02-13T12:08:43;100814.94;;;10.16;100.00
22333;BME280;11334;36.986;-121.936;2023-02-13T12:13:51;100801.69;;;10.16;100.00
22333;BME280;11334;36.986;-121.936;2023-02-13T12:16:53;100813.13;;;10.17;100.00
22333;BME280;11334;36.986;-121.936;2023-02-13T12:19:27;100805.56;;;10.22;100.00
22333;BME280;11334;36.986;-121.936;2023-02-13T12:27:45;100811.44;;;10.33;100.00
22333;BME280;11334;36.986;-121.936;2023-02-13T12:36:48;100824.47;;;10.27;100.00
22333;BME280;11334;36.986;-121.936;2023-02-13T12:39:29;100834.72;;;10.30;100.00
22333;BME280;11334;36.986;-121.936;2023-02-13T12:42:39;100833.41;;;10.26;100.00
22333;BME280;11334;36.986;-121.936;2023-02-13T12:45:47;100829.06;;;10.25;100.00
22333;BME280;11334;36.986;-121.936;2023-02-13T12:48:27;100822.81;;;10.26;100.00
22333;BME280;11334;36.986;-121.936;2023-02-13T12:51:22;100823.63;;;10.26;100.00
22333;BME280;11334;36.986;-121.936;2023-02-13T13:00:08;100830.44;;;10.29;100.00
22333;BME280;11334;36.986;-121.936;2023-02-13T13:08:11;100827.78;;;10.29;100.00
22333;BME280;11334;36.986;-121.936;2023-02-13T13:10:47;100840.72;;;10.32;100.00
22333;BME280;11334;36.986;-121.936;2023-02-13T13:15:46;100840.72;;;10.32;100.00
22333;BME280;11334;36.986;-121.936;2023-02-13T13:18:23;100834.66;;;10.39;100.00
22333;BME280;11334;36.986;-121.936;2023-02-13T13:21:24;100843.78;;;10.44;100.00
22333;BME280;11334;36.986;-121.936;2023-02-13T13:26:47;100818.03;;;10.29;100.00
22333;BME280;11334;36.986;-121.936;2023-02-13T13:29:21;100831.50;;;10.36;100.00
22333;BME280;11334;36.986;-121.936;2023-02-13T13:31:55;100835.47;;;10.40;100.00
22333;BME280;11334;36.986;-121.936;2023-02-13T13:34:24;100845.75;;;10.42;100.00
22333;BME280;11334;36.986;-121.936;2023-02-13T13:37:07;100853.56;;;10.44;100.00
22333;BME280;11334;36.986;-121.936;2023-02-13T13:42:26;100869.97;;;10.47;100.00
22333;BME280;11334;36.986;-121.936;2023-02-13T13:49:58;100869.97;;;10.47;100.00
22333;BME280;11334;36.986;-121.936;2023-02-13T13:52:32;100873.31;;;10.49;100.00
22333;BME280;11334;36.986;-121.936;2023-02-13T13:55:00;100877.91;;;10.47;100.00
22333;BME280;11334;36.986;-121.936;2023-02-13T14:02:48;100864.06;;;10.53;100.00
22333;BME280;11334;36.986;-121.936;2023-02-13T14:07:53;100868.00;;;10.49;99.95
22333;BME280;11334;36.986;-121.936;2023-02-13T14:13:00;100868.56;;;10.53;100.00
22333;BME280;11334;36.986;-121.936;2023-02-13T14:36:36;100878.47;;;10.51;99.89
22333;BME280;11334;36.986;-121.936;2023-02-13T14:44:25;100877.78;;;10.49;99.79
22333;BME280;11334;36.986;-121.936;2023-02-13T14:46:53;100870.66;;;10.49;99.91
22333;BME280;11334;36.986;-121.936;2023-02-13T14:49:27;100873.31;;;10.49;100.00
22333;BME280;11334;36.986;-121.936;2023-02-13T14:51:57;100874.63;;;10.45;99.96
22333;BME280;11334;36.986;-121.936;2023-02-13T14:57:32;100887.38;;;10.50;99.44
22333;BME280;11334;36.986;-121.936;2023-02-13T15:00:08;100893.34;;;10.52;99.51
22333;BME280;11334;36.986;-121.936;2023-02-13T15:02:45;100900.03;;;10.56;99.73
22333;BME280;11334;36.986;-121.936;2023-02-13T15:05:17;100897.38;;;10.56;99.58
22333;BME280;11334;36.986;-121.936;2023-02-13T15:08:13;100900.72;;;10.58;99.46
22333;BME280;11334;36.986;-121.936;2023-02-13T15:10:41;100900.84;;;10.56;99.16
22333;BME280;11334;36.986;-121.936;2023-02-13T15:13:34;100902.22;;;10.60;99.61
22333;BME280;11334;36.986;-121.936;2023-02-13T15:16:09;100911.44;;;10.56;98.88